TRPR62 YENO-YBOK
Flight info
| Callsign | TRPR62 |
|---|---|
| Flight time | 1h 32m |
| Altitude | 3500 |
| Route | VFR |
| Aircraft | H60/L-G/1200 |
Departure
| Time | 2026-04-24 05:56 |
|---|---|
| Airport | Enoggera Barracks (YENO) |
Arrival
| Time | 2026-04-24 07:28 |
|---|---|
| Airport | Oakey Army Aviation Centre (YBOK) |
| Time | Latitude | Longitude | Altitude | Speed | Heading |
|---|---|---|---|---|---|
| 2026-04-24 05:54 | -27.42754 | 152.97158 | 229 ft | 0 kts | 359° |
| 2026-04-24 05:56 | -27.42745 | 152.97156 | 298 ft | 1 kts | 355° |
| 2026-04-24 05:56 | -27.42734 | 152.97208 | 481 ft | 29 kts | 133° |
| 2026-04-24 05:56 | -27.43043 | 152.97484 | 849 ft | 78 kts | 144° |
| 2026-04-24 05:56 | -27.43553 | 152.97924 | 909 ft | 102 kts | 140° |
| 2026-04-24 05:57 | -27.44065 | 152.98502 | 954 ft | 102 kts | 136° |
| 2026-04-24 05:57 | -27.44552 | 152.99061 | 1088 ft | 107 kts | 140° |
| 2026-04-24 05:57 | -27.45163 | 152.99621 | 881 ft | 108 kts | 145° |
| 2026-04-24 05:57 | -27.45733 | 153.00044 | 912 ft | 96 kts | 146° |
| 2026-04-24 05:58 | -27.46271 | 153.00483 | 696 ft | 95 kts | 138° |
| 2026-04-24 05:58 | -27.46798 | 153.00838 | 424 ft | 84 kts | 178° |
| 2026-04-24 05:58 | -27.47308 | 153.00593 | 305 ft | 78 kts | 217° |
| 2026-04-24 05:58 | -27.47711 | 153.00204 | 243 ft | 75 kts | 215° |
| 2026-04-24 05:59 | -27.48152 | 152.99850 | 241 ft | 81 kts | 209° |
| 2026-04-24 05:59 | -27.48634 | 152.99588 | 216 ft | 69 kts | 198° |
| 2026-04-24 05:59 | -27.49004 | 152.99770 | 195 ft | 72 kts | 128° |
| 2026-04-24 05:59 | -27.49097 | 153.00385 | 268 ft | 86 kts | 104° |
| 2026-04-24 06:00 | -27.49095 | 153.01074 | 255 ft | 86 kts | 102° |
| 2026-04-24 06:00 | -27.49294 | 153.01682 | 353 ft | 85 kts | 131° |
| 2026-04-24 06:00 | -27.49842 | 153.02095 | 326 ft | 103 kts | 167° |
| 2026-04-24 06:00 | -27.50295 | 153.01731 | 306 ft | 95 kts | 257° |
| 2026-04-24 06:01 | -27.50440 | 153.00930 | 320 ft | 114 kts | 264° |
| 2026-04-24 06:01 | -27.50759 | 153.00149 | 217 ft | 104 kts | 220° |
| 2026-04-24 06:01 | -27.51410 | 152.99911 | 196 ft | 101 kts | 167° |
| 2026-04-24 06:01 | -27.51652 | 153.00624 | 202 ft | 105 kts | 107° |
| 2026-04-24 06:02 | -27.52041 | 153.00953 | 191 ft | 84 kts | 217° |
| 2026-04-24 06:02 | -27.52281 | 153.00309 | 275 ft | 105 kts | 262° |
| 2026-04-24 06:02 | -27.52173 | 152.99482 | 398 ft | 112 kts | 297° |
| 2026-04-24 06:02 | -27.51676 | 152.98787 | 404 ft | 117 kts | 337° |
| 2026-04-24 06:03 | -27.51046 | 152.98149 | 357 ft | 126 kts | 323° |
| 2026-04-24 06:03 | -27.50549 | 152.97350 | 226 ft | 117 kts | 276° |
| 2026-04-24 06:03 | -27.50912 | 152.96789 | 218 ft | 99 kts | 198° |
| 2026-04-24 06:03 | -27.51587 | 152.96705 | 213 ft | 97 kts | 174° |
| 2026-04-24 06:04 | -27.52260 | 152.96991 | 184 ft | 107 kts | 158° |
| 2026-04-24 06:04 | -27.52947 | 152.97121 | 210 ft | 103 kts | 195° |
| 2026-04-24 06:04 | -27.53620 | 152.97163 | 204 ft | 97 kts | 160° |
| 2026-04-24 06:04 | -27.54258 | 152.97389 | 231 ft | 88 kts | 212° |
| 2026-04-24 06:05 | -27.54417 | 152.96723 | 300 ft | 104 kts | 297° |
| 2026-04-24 06:05 | -27.53857 | 152.96178 | 347 ft | 115 kts | 356° |
| 2026-04-24 06:05 | -27.53172 | 152.95645 | 243 ft | 122 kts | 316° |
| 2026-04-24 06:05 | -27.52772 | 152.94771 | 232 ft | 133 kts | 285° |
| 2026-04-24 06:06 | -27.52675 | 152.93775 | 278 ft | 128 kts | 270° |
| 2026-04-24 06:06 | -27.52885 | 152.92840 | 130 ft | 104 kts | 220° |
| 2026-04-24 06:06 | -27.53523 | 152.92676 | 126 ft | 101 kts | 180° |
| 2026-04-24 06:06 | -27.54136 | 152.92414 | 170 ft | 101 kts | 242° |
| 2026-04-24 06:07 | -27.54219 | 152.91556 | 190 ft | 121 kts | 261° |
| 2026-04-24 06:07 | -27.54337 | 152.90629 | 217 ft | 121 kts | 256° |
| 2026-04-24 06:07 | -27.54906 | 152.90383 | 150 ft | 94 kts | 163° |
| 2026-04-24 06:07 | -27.55544 | 152.90523 | 105 ft | 92 kts | 210° |
| 2026-04-24 06:08 | -27.55867 | 152.89819 | 136 ft | 109 kts | 233° |
| 2026-04-24 06:08 | -27.56420 | 152.89830 | 115 ft | 91 kts | 135° |
| 2026-04-24 06:08 | -27.56925 | 152.89962 | 88 ft | 92 kts | 217° |
| 2026-04-24 06:08 | -27.57492 | 152.89476 | 113 ft | 106 kts | 209° |
| 2026-04-24 06:09 | -27.58162 | 152.89437 | 175 ft | 92 kts | 172° |
| 2026-04-24 06:09 | -27.58784 | 152.89831 | 104 ft | 110 kts | 143° |
| 2026-04-24 06:09 | -27.59378 | 152.90348 | 99 ft | 104 kts | 154° |
| 2026-04-24 06:09 | -27.60004 | 152.90558 | 90 ft | 71 kts | 203° |
| 2026-04-24 06:10 | -27.60223 | 152.90029 | 69 ft | 94 kts | 261° |
| 2026-04-24 06:10 | -27.59830 | 152.89458 | 112 ft | 102 kts | 341° |
| 2026-04-24 06:10 | -27.59121 | 152.88973 | 47 ft | 126 kts | 321° |
| 2026-04-24 06:11 | -27.58030 | 152.87716 | 137 ft | 109 kts | 311° |
| 2026-04-24 06:11 | -27.58104 | 152.87016 | 82 ft | 98 kts | 220° |
| 2026-04-24 06:11 | -27.58691 | 152.86692 | 106 ft | 101 kts | 195° |
| 2026-04-24 06:11 | -27.59380 | 152.86407 | 89 ft | 107 kts | 199° |
| 2026-04-24 06:12 | -27.59727 | 152.85847 | 122 ft | 97 kts | 286° |
| 2026-04-24 06:12 | -27.59166 | 152.85642 | 138 ft | 107 kts | 6° |
| 2026-04-24 06:12 | -27.58414 | 152.85512 | 86 ft | 49 kts | 357° |
| 2026-04-24 06:12 | -27.58336 | 152.85514 | 67 ft | 6 kts | 348° |
| 2026-04-24 06:13 | -27.58353 | 152.85529 | 20 ft | 5 kts | 347° |
| 2026-04-24 06:13 | -27.58407 | 152.85541 | 88 ft | 9 kts | 347° |
| 2026-04-24 06:13 | -27.58316 | 152.85536 | 89 ft | 48 kts | 348° |
| 2026-04-24 06:13 | -27.58016 | 152.85523 | 155 ft | 87 kts | 4° |
| 2026-04-24 06:14 | -27.57276 | 152.85252 | 51 ft | 124 kts | 336° |
| 2026-04-24 06:14 | -27.56453 | 152.84915 | 117 ft | 129 kts | 357° |
| 2026-04-24 06:14 | -27.55579 | 152.84956 | 123 ft | 125 kts | 22° |
| 2026-04-24 06:14 | -27.54769 | 152.85234 | 170 ft | 124 kts | 22° |
| 2026-04-24 06:15 | -27.53918 | 152.85115 | 114 ft | 124 kts | 347° |
| 2026-04-24 06:15 | -27.53268 | 152.84652 | 122 ft | 97 kts | 315° |
| 2026-04-24 06:15 | -27.53071 | 152.83936 | 128 ft | 96 kts | 272° |
| 2026-04-24 06:15 | -27.53299 | 152.83236 | 104 ft | 90 kts | 221° |
| 2026-04-24 06:16 | -27.53808 | 152.83419 | 118 ft | 98 kts | 127° |
| 2026-04-24 06:16 | -27.54104 | 152.84070 | 75 ft | 86 kts | 153° |
| 2026-04-24 06:16 | -27.54540 | 152.83903 | 73 ft | 84 kts | 267° |
| 2026-04-24 06:16 | -27.54711 | 152.83132 | 65 ft | 112 kts | 251° |
| 2026-04-24 06:17 | -27.54977 | 152.82531 | 84 ft | 63 kts | 290° |
| 2026-04-24 06:17 | -27.55273 | 152.82301 | 68 ft | 76 kts | 187° |
| 2026-04-24 06:17 | -27.55628 | 152.81752 | 57 ft | 111 kts | 260° |
| 2026-04-24 06:17 | -27.55757 | 152.80890 | 144 ft | 113 kts | 262° |
| 2026-04-24 06:18 | -27.55595 | 152.80063 | 115 ft | 101 kts | 266° |
| 2026-04-24 06:18 | -27.55526 | 152.79212 | 145 ft | 117 kts | 281° |
| 2026-04-24 06:18 | -27.55006 | 152.78687 | 158 ft | 104 kts | 29° |
| 2026-04-24 06:18 | -27.54647 | 152.79292 | 126 ft | 102 kts | 88° |
| 2026-04-24 06:19 | -27.54174 | 152.79788 | 103 ft | 103 kts | 30° |
| 2026-04-24 06:19 | -27.53527 | 152.79658 | 116 ft | 88 kts | 300° |
| 2026-04-24 06:19 | -27.53559 | 152.79023 | 117 ft | 95 kts | 252° |
| 2026-04-24 06:19 | -27.53647 | 152.78238 | 62 ft | 108 kts | 283° |
| 2026-04-24 06:20 | -27.53376 | 152.77434 | 176 ft | 95 kts | 319° |
| 2026-04-24 06:20 | -27.53036 | 152.76858 | 187 ft | 87 kts | 275° |
| 2026-04-24 06:20 | -27.53185 | 152.76181 | 119 ft | 84 kts | 238° |
| 2026-04-24 06:20 | -27.53617 | 152.76015 | 217 ft | 76 kts | 191° |
| 2026-04-24 06:21 | -27.54150 | 152.76379 | 108 ft | 101 kts | 154° |
| 2026-04-24 06:21 | -27.54694 | 152.76549 | 155 ft | 80 kts | 209° |
| 2026-04-24 06:21 | -27.55190 | 152.76071 | 158 ft | 99 kts | 234° |
| 2026-04-24 06:21 | -27.55574 | 152.75460 | 108 ft | 88 kts | 243° |
| 2026-04-24 06:22 | -27.55939 | 152.75039 | 112 ft | 72 kts | 202° |
| 2026-04-24 06:22 | -27.56393 | 152.74817 | 116 ft | 60 kts | 207° |
| 2026-04-24 06:22 | -27.56629 | 152.74478 | 143 ft | 71 kts | 276° |
| 2026-04-24 06:22 | -27.56305 | 152.74044 | 134 ft | 81 kts | 359° |
| 2026-04-24 06:23 | -27.55709 | 152.74099 | 133 ft | 99 kts | 22° |
| 2026-04-24 06:23 | -27.55019 | 152.74210 | 121 ft | 95 kts | 18° |
| 2026-04-24 06:23 | -27.54338 | 152.74329 | 126 ft | 103 kts | 20° |
| 2026-04-24 06:23 | -27.53626 | 152.74483 | 154 ft | 108 kts | 18° |
| 2026-04-24 06:24 | -27.52859 | 152.74718 | 154 ft | 114 kts | 22° |
| 2026-04-24 06:24 | -27.52318 | 152.75182 | 260 ft | 92 kts | 88° |
| 2026-04-24 06:24 | -27.52480 | 152.75851 | 250 ft | 101 kts | 137° |
| 2026-04-24 06:24 | -27.52151 | 152.76343 | 209 ft | 103 kts | 19° |
| 2026-04-24 06:25 | -27.51735 | 152.75817 | 178 ft | 99 kts | 272° |
| 2026-04-24 06:25 | -27.51699 | 152.74967 | 175 ft | 120 kts | 283° |
| 2026-04-24 06:25 | -27.51159 | 152.74259 | 241 ft | 127 kts | 327° |
| 2026-04-24 06:25 | -27.50336 | 152.73835 | 116 ft | 128 kts | 322° |
| 2026-04-24 06:26 | -27.49760 | 152.73146 | 244 ft | 123 kts | 318° |
| 2026-04-24 06:26 | -27.49054 | 152.72768 | 190 ft | 107 kts | 292° |
| 2026-04-24 06:26 | -27.49228 | 152.72076 | 211 ft | 83 kts | 210° |
| 2026-04-24 06:26 | -27.49750 | 152.72109 | 199 ft | 85 kts | 141° |
| 2026-04-24 06:27 | -27.50113 | 152.72689 | 167 ft | 85 kts | 160° |
| 2026-04-24 06:27 | -27.50672 | 152.72570 | 207 ft | 84 kts | 246° |
| 2026-04-24 06:27 | -27.50684 | 152.71910 | 231 ft | 91 kts | 333° |
| 2026-04-24 06:27 | -27.50153 | 152.71313 | 142 ft | 114 kts | 307° |
| 2026-04-24 06:28 | -27.49716 | 152.70598 | 192 ft | 95 kts | 299° |
| 2026-04-24 06:28 | -27.49882 | 152.70000 | 164 ft | 84 kts | 233° |
| 2026-04-24 06:28 | -27.50037 | 152.69352 | 220 ft | 95 kts | 286° |
| 2026-04-24 06:28 | -27.49812 | 152.68622 | 252 ft | 104 kts | 318° |
| 2026-04-24 06:29 | -27.49232 | 152.67952 | 251 ft | 124 kts | 334° |
| 2026-04-24 06:29 | -27.48496 | 152.67999 | 275 ft | 100 kts | 62° |
| 2026-04-24 06:29 | -27.48470 | 152.68701 | 271 ft | 104 kts | 119° |
| 2026-04-24 06:29 | -27.48506 | 152.69551 | 233 ft | 106 kts | 94° |
| 2026-04-24 06:30 | -27.48139 | 152.70346 | 239 ft | 123 kts | 59° |
| 2026-04-24 06:30 | -27.47423 | 152.70869 | 266 ft | 124 kts | 40° |
| 2026-04-24 06:30 | -27.46779 | 152.71082 | 161 ft | 82 kts | 324° |
| 2026-04-24 06:30 | -27.46713 | 152.70386 | 175 ft | 104 kts | 261° |
| 2026-04-24 06:31 | -27.46633 | 152.69500 | 199 ft | 122 kts | 289° |
| 2026-04-24 06:31 | -27.46141 | 152.68740 | 184 ft | 115 kts | 354° |
| 2026-04-24 06:31 | -27.45346 | 152.68668 | 238 ft | 112 kts | 327° |
| 2026-04-24 06:31 | -27.45077 | 152.67862 | 210 ft | 123 kts | 278° |
| 2026-04-24 06:32 | -27.44557 | 152.67179 | 265 ft | 121 kts | 333° |
| 2026-04-24 06:32 | -27.43800 | 152.66726 | 325 ft | 124 kts | 326° |
| 2026-04-24 06:32 | -27.43445 | 152.65915 | 390 ft | 124 kts | 295° |
| 2026-04-24 06:32 | -27.42903 | 152.65361 | 324 ft | 108 kts | 348° |
| 2026-04-24 06:33 | -27.42818 | 152.64689 | 195 ft | 98 kts | 251° |
| 2026-04-24 06:33 | -27.43085 | 152.63874 | 290 ft | 110 kts | 260° |
| 2026-04-24 06:33 | -27.43620 | 152.63346 | 287 ft | 111 kts | 206° |
| 2026-04-24 06:33 | -27.44277 | 152.62836 | 305 ft | 117 kts | 222° |
| 2026-04-24 06:34 | -27.44937 | 152.62260 | 277 ft | 120 kts | 217° |
| 2026-04-24 06:34 | -27.45572 | 152.61687 | 294 ft | 115 kts | 228° |
| 2026-04-24 06:34 | -27.46061 | 152.60933 | 276 ft | 129 kts | 236° |
| 2026-04-24 06:34 | -27.46581 | 152.60173 | 280 ft | 113 kts | 232° |
| 2026-04-24 06:35 | -27.46981 | 152.59508 | 303 ft | 86 kts | 277° |
| 2026-04-24 06:35 | -27.46681 | 152.58990 | 332 ft | 87 kts | 4° |
| 2026-04-24 06:35 | -27.45949 | 152.59037 | 206 ft | 118 kts | 20° |
| 2026-04-24 06:35 | -27.45123 | 152.59176 | 207 ft | 122 kts | 27° |
| 2026-04-24 06:36 | -27.44300 | 152.59396 | 219 ft | 120 kts | 17° |
| 2026-04-24 06:36 | -27.43839 | 152.59887 | 223 ft | 102 kts | 59° |
| 2026-04-24 06:36 | -27.43169 | 152.60386 | 227 ft | 127 kts | 14° |
| 2026-04-24 06:36 | -27.42327 | 152.60576 | 246 ft | 126 kts | 356° |
| 2026-04-24 06:37 | -27.41596 | 152.60455 | 349 ft | 80 kts | 266° |
| 2026-04-24 06:37 | -27.41680 | 152.59733 | 305 ft | 115 kts | 257° |
| 2026-04-24 06:37 | -27.41935 | 152.58984 | 313 ft | 78 kts | 179° |
| 2026-04-24 06:37 | -27.42325 | 152.58585 | 296 ft | 104 kts | 220° |
| 2026-04-24 06:38 | -27.42902 | 152.58161 | 302 ft | 108 kts | 210° |
| 2026-04-24 06:38 | -27.43587 | 152.57918 | 331 ft | 105 kts | 195° |
| 2026-04-24 06:38 | -27.44275 | 152.57611 | 344 ft | 105 kts | 217° |
| 2026-04-24 06:38 | -27.44519 | 152.57156 | 328 ft | 70 kts | 327° |
| 2026-04-24 06:39 | -27.44054 | 152.57136 | 371 ft | 80 kts | 24° |
| 2026-04-24 06:39 | -27.43861 | 152.56874 | 288 ft | 53 kts | 257° |
| 2026-04-24 06:39 | -27.43627 | 152.56460 | 284 ft | 88 kts | 345° |
| 2026-04-24 06:39 | -27.42923 | 152.56267 | 400 ft | 109 kts | 1° |
| 2026-04-24 06:40 | -27.42124 | 152.56070 | 261 ft | 115 kts | 5° |
| 2026-04-24 06:40 | -27.41668 | 152.56408 | 356 ft | 81 kts | 21° |
| 2026-04-24 06:40 | -27.41505 | 152.56084 | 312 ft | 88 kts | 215° |
| 2026-04-24 06:40 | -27.42015 | 152.55670 | 313 ft | 98 kts | 233° |
| 2026-04-24 06:41 | -27.41843 | 152.55054 | 376 ft | 97 kts | 354° |
| 2026-04-24 06:41 | -27.41295 | 152.55261 | 361 ft | 66 kts | 323° |
| 2026-04-24 06:41 | -27.41408 | 152.54638 | 368 ft | 109 kts | 246° |
| 2026-04-24 06:41 | -27.41573 | 152.53704 | 366 ft | 124 kts | 250° |
| 2026-04-24 06:42 | -27.42037 | 152.52988 | 444 ft | 115 kts | 222° |
| 2026-04-24 06:42 | -27.42676 | 152.52421 | 360 ft | 106 kts | 218° |
| 2026-04-24 06:42 | -27.43179 | 152.51853 | 451 ft | 106 kts | 221° |
| 2026-04-24 06:42 | -27.43444 | 152.52095 | 398 ft | 101 kts | 82° |
| 2026-04-24 06:43 | -27.43157 | 152.52895 | 369 ft | 109 kts | 83° |
| 2026-04-24 06:43 | -27.43196 | 152.53427 | 269 ft | 38 kts | 133° |
| 2026-04-24 06:43 | -27.43281 | 152.53487 | 254 ft | 1 kts | 156° |
| 2026-04-24 06:43 | -27.43263 | 152.53490 | 326 ft | 3 kts | 189° |
| 2026-04-24 06:44 | -27.43245 | 152.53494 | 273 ft | 3 kts | 188° |
| 2026-04-24 06:44 | -27.43226 | 152.53496 | 264 ft | 3 kts | 182° |
| 2026-04-24 06:44 | -27.43217 | 152.53496 | 227 ft | 9 kts | 181° |
| 2026-04-24 06:44 | -27.43318 | 152.53518 | 279 ft | 40 kts | 179° |
| 2026-04-24 06:45 | -27.43860 | 152.53745 | 332 ft | 106 kts | 152° |
| 2026-04-24 06:45 | -27.44347 | 152.53512 | 456 ft | 108 kts | 279° |
| 2026-04-24 06:45 | -27.44147 | 152.52527 | 385 ft | 146 kts | 290° |
| 2026-04-24 06:45 | -27.44134 | 152.51422 | 354 ft | 136 kts | 255° |
| 2026-04-24 06:46 | -27.44454 | 152.50487 | 403 ft | 111 kts | 235° |
| 2026-04-24 06:46 | -27.44759 | 152.50522 | 407 ft | 89 kts | 78° |
| 2026-04-24 06:46 | -27.44826 | 152.51294 | 373 ft | 106 kts | 97° |
| 2026-04-24 06:46 | -27.45178 | 152.51771 | 411 ft | 85 kts | 212° |
| 2026-04-24 06:47 | -27.45781 | 152.51492 | 322 ft | 89 kts | 169° |
| 2026-04-24 06:47 | -27.46174 | 152.52023 | 404 ft | 108 kts | 124° |
| 2026-04-24 06:47 | -27.46614 | 152.52755 | 411 ft | 119 kts | 136° |
| 2026-04-24 06:47 | -27.47136 | 152.52755 | 520 ft | 92 kts | 287° |
| 2026-04-24 06:48 | -27.47168 | 152.52176 | 461 ft | 81 kts | 172° |
| 2026-04-24 06:48 | -27.47312 | 152.51778 | 453 ft | 112 kts | 321° |
| 2026-04-24 06:48 | -27.46645 | 152.51660 | 571 ft | 122 kts | 328° |
| 2026-04-24 06:48 | -27.46802 | 152.50842 | 471 ft | 125 kts | 239° |
| 2026-04-24 06:49 | -27.47208 | 152.49971 | 424 ft | 120 kts | 225° |
| 2026-04-24 06:49 | -27.47941 | 152.49893 | 398 ft | 104 kts | 188° |
| 2026-04-24 06:49 | -27.48628 | 152.49979 | 400 ft | 102 kts | 171° |
| 2026-04-24 06:49 | -27.49267 | 152.50161 | 418 ft | 93 kts | 168° |
| 2026-04-24 06:50 | -27.49591 | 152.49956 | 442 ft | 80 kts | 318° |
| 2026-04-24 06:50 | -27.49156 | 152.49414 | 482 ft | 106 kts | 328° |
| 2026-04-24 06:50 | -27.48692 | 152.48691 | 411 ft | 116 kts | 316° |
| 2026-04-24 06:50 | -27.48212 | 152.47989 | 387 ft | 112 kts | 330° |
| 2026-04-24 06:51 | -27.47574 | 152.47447 | 382 ft | 115 kts | 339° |
| 2026-04-24 06:51 | -27.47019 | 152.46801 | 389 ft | 113 kts | 318° |
| 2026-04-24 06:51 | -27.46855 | 152.46092 | 409 ft | 86 kts | 264° |
| 2026-04-24 06:51 | -27.47335 | 152.45682 | 379 ft | 95 kts | 232° |
| 2026-04-24 06:52 | -27.47888 | 152.45270 | 393 ft | 93 kts | 204° |
| 2026-04-24 06:52 | -27.48530 | 152.44977 | 386 ft | 98 kts | 228° |
| 2026-04-24 06:52 | -27.48346 | 152.44313 | 421 ft | 113 kts | 319° |
| 2026-04-24 06:52 | -27.48603 | 152.43692 | 480 ft | 99 kts | 206° |
| 2026-04-24 06:53 | -27.49280 | 152.43767 | 430 ft | 99 kts | 165° |
| 2026-04-24 06:53 | -27.49715 | 152.43301 | 403 ft | 105 kts | 257° |
| 2026-04-24 06:53 | -27.50188 | 152.42729 | 446 ft | 88 kts | 229° |
| 2026-04-24 06:53 | -27.50703 | 152.42343 | 371 ft | 94 kts | 187° |
| 2026-04-24 06:54 | -27.51312 | 152.42169 | 465 ft | 108 kts | 237° |
| 2026-04-24 06:54 | -27.51924 | 152.41955 | 415 ft | 93 kts | 180° |
| 2026-04-24 06:54 | -27.52275 | 152.41684 | 434 ft | 102 kts | 285° |
| 2026-04-24 06:54 | -27.52115 | 152.40908 | 466 ft | 102 kts | 348° |
| 2026-04-24 06:55 | -27.51846 | 152.40261 | 429 ft | 99 kts | 255° |
| 2026-04-24 06:55 | -27.51910 | 152.39745 | 461 ft | 83 kts | 343° |
| 2026-04-24 06:55 | -27.51410 | 152.39302 | 411 ft | 108 kts | 307° |
| 2026-04-24 06:55 | -27.51740 | 152.38998 | 432 ft | 83 kts | 199° |
| 2026-04-24 06:56 | -27.52102 | 152.38451 | 563 ft | 107 kts | 259° |
| 2026-04-24 06:56 | -27.52394 | 152.37630 | 463 ft | 108 kts | 226° |
| 2026-04-24 06:56 | -27.53003 | 152.37471 | 451 ft | 86 kts | 199° |
| 2026-04-24 06:56 | -27.53192 | 152.36849 | 504 ft | 100 kts | 274° |
| 2026-04-24 06:57 | -27.53314 | 152.36074 | 511 ft | 98 kts | 263° |
| 2026-04-24 06:57 | -27.53643 | 152.35460 | 473 ft | 84 kts | 217° |
| 2026-04-24 06:57 | -27.53882 | 152.34828 | 467 ft | 94 kts | 254° |
| 2026-04-24 06:57 | -27.54019 | 152.34248 | 440 ft | 70 kts | 328° |
| 2026-04-24 06:58 | -27.53422 | 152.34216 | 509 ft | 112 kts | 359° |
| 2026-04-24 06:58 | -27.53285 | 152.33700 | 507 ft | 92 kts | 224° |
| 2026-04-24 06:58 | -27.53839 | 152.33270 | 557 ft | 97 kts | 232° |
| 2026-04-24 06:58 | -27.54262 | 152.32656 | 518 ft | 102 kts | 257° |
| 2026-04-24 06:59 | -27.54274 | 152.31916 | 463 ft | 92 kts | 318° |
| 2026-04-24 06:59 | -27.54420 | 152.31299 | 435 ft | 68 kts | 224° |
| 2026-04-24 06:59 | -27.54545 | 152.31172 | 372 ft | 10 kts | 227° |
| 2026-04-24 06:59 | -27.54576 | 152.31129 | 339 ft | 5 kts | 298° |
| 2026-04-24 07:00 | -27.54575 | 152.31121 | 325 ft | 2 kts | 307° |
| 2026-04-24 07:00 | -27.54573 | 152.31120 | 325 ft | 0 kts | 306° |
| 2026-04-24 07:03 | -27.54551 | 152.31091 | 354 ft | 20 kts | 302° |
| 2026-04-24 07:03 | -27.54364 | 152.30796 | 413 ft | 75 kts | 301° |
| 2026-04-24 07:03 | -27.54197 | 152.30106 | 411 ft | 104 kts | 282° |
| 2026-04-24 07:04 | -27.54062 | 152.29257 | 446 ft | 114 kts | 278° |
| 2026-04-24 07:04 | -27.53923 | 152.28383 | 511 ft | 115 kts | 278° |
| 2026-04-24 07:04 | -27.53776 | 152.27482 | 520 ft | 119 kts | 291° |
| 2026-04-24 07:04 | -27.53626 | 152.26554 | 469 ft | 116 kts | 281° |
| 2026-04-24 07:05 | -27.53533 | 152.25411 | 478 ft | 105 kts | 251° |
| 2026-04-24 07:05 | -27.53716 | 152.24918 | 479 ft | 103 kts | 243° |
| 2026-04-24 07:05 | -27.54017 | 152.24177 | 469 ft | 113 kts | 247° |
| 2026-04-24 07:05 | -27.54333 | 152.23406 | 523 ft | 107 kts | 248° |
| 2026-04-24 07:06 | -27.54652 | 152.22616 | 535 ft | 110 kts | 248° |
| 2026-04-24 07:06 | -27.54968 | 152.21829 | 548 ft | 113 kts | 246° |
| 2026-04-24 07:06 | -27.55156 | 152.20980 | 580 ft | 113 kts | 264° |
| 2026-04-24 07:06 | -27.55240 | 152.20083 | 616 ft | 111 kts | 266° |
| 2026-04-24 07:07 | -27.55309 | 152.19291 | 662 ft | 92 kts | 269° |
| 2026-04-24 07:07 | -27.55356 | 152.18719 | 544 ft | 57 kts | 271° |
| 2026-04-24 07:07 | -27.55369 | 152.18507 | 455 ft | 0 kts | 267° |
| 2026-04-24 07:09 | -27.55374 | 152.18434 | 502 ft | 39 kts | 262° |
| 2026-04-24 07:09 | -27.55401 | 152.17841 | 636 ft | 107 kts | 273° |
| 2026-04-24 07:10 | -27.55247 | 152.16948 | 664 ft | 114 kts | 273° |
| 2026-04-24 07:10 | -27.55202 | 152.16033 | 676 ft | 118 kts | 269° |
| 2026-04-24 07:10 | -27.55166 | 152.15146 | 731 ft | 115 kts | 271° |
| 2026-04-24 07:10 | -27.55127 | 152.14210 | 661 ft | 116 kts | 270° |
| 2026-04-24 07:11 | -27.55180 | 152.13297 | 618 ft | 116 kts | 253° |
| 2026-04-24 07:11 | -27.55312 | 152.12427 | 630 ft | 117 kts | 274° |
| 2026-04-24 07:11 | -27.55016 | 152.11593 | 625 ft | 117 kts | 286° |
| 2026-04-24 07:11 | -27.54870 | 152.10709 | 657 ft | 119 kts | 283° |
| 2026-04-24 07:12 | -27.54698 | 152.09796 | 647 ft | 115 kts | 270° |
| 2026-04-24 07:12 | -27.54751 | 152.08926 | 731 ft | 114 kts | 266° |
| 2026-04-24 07:12 | -27.54557 | 152.08093 | 804 ft | 106 kts | 314° |
| 2026-04-24 07:12 | -27.53842 | 152.07709 | 708 ft | 113 kts | 349° |
| 2026-04-24 07:13 | -27.53082 | 152.07326 | 647 ft | 119 kts | 328° |
| 2026-04-24 07:13 | -27.52636 | 152.06865 | 724 ft | 60 kts | 317° |
| 2026-04-24 07:13 | -27.52563 | 152.06757 | 665 ft | 0 kts | 313° |
| 2026-04-24 07:14 | -27.52476 | 152.06629 | 773 ft | 69 kts | 313° |
| 2026-04-24 07:14 | -27.52172 | 152.05923 | 836 ft | 106 kts | 290° |
| 2026-04-24 07:14 | -27.51828 | 152.05157 | 953 ft | 113 kts | 302° |
| 2026-04-24 07:15 | -27.51494 | 152.04391 | 1004 ft | 110 kts | 286° |
| 2026-04-24 07:15 | -27.51499 | 152.03580 | 983 ft | 105 kts | 266° |
| 2026-04-24 07:15 | -27.51547 | 152.02701 | 927 ft | 112 kts | 268° |
| 2026-04-24 07:15 | -27.51298 | 152.01930 | 1048 ft | 101 kts | 311° |
| 2026-04-24 07:16 | -27.50849 | 152.01232 | 1039 ft | 111 kts | 298° |
| 2026-04-24 07:16 | -27.50721 | 152.00501 | 1269 ft | 92 kts | 273° |
| 2026-04-24 07:16 | -27.50608 | 151.99770 | 1413 ft | 97 kts | 297° |
| 2026-04-24 07:16 | -27.50219 | 151.99222 | 1642 ft | 79 kts | 314° |
| 2026-04-24 07:17 | -27.49908 | 151.98517 | 1609 ft | 119 kts | 293° |
| 2026-04-24 07:17 | -27.49982 | 151.97682 | 1596 ft | 99 kts | 240° |
| 2026-04-24 07:17 | -27.50516 | 151.97189 | 1629 ft | 98 kts | 211° |
| 2026-04-24 07:17 | -27.51057 | 151.96681 | 1774 ft | 100 kts | 220° |
| 2026-04-24 07:18 | -27.51309 | 151.95921 | 1906 ft | 101 kts | 238° |
| 2026-04-24 07:18 | -27.51783 | 151.95434 | 2120 ft | 85 kts | 240° |
| 2026-04-24 07:18 | -27.51992 | 151.94664 | 1970 ft | 122 kts | 277° |
| 2026-04-24 07:18 | -27.51943 | 151.93770 | 2012 ft | 110 kts | 293° |
| 2026-04-24 07:19 | -27.51595 | 151.92961 | 1960 ft | 118 kts | 321° |
| 2026-04-24 07:19 | -27.51035 | 151.92307 | 1982 ft | 125 kts | 319° |
| 2026-04-24 07:19 | -27.50685 | 151.91535 | 2032 ft | 110 kts | 293° |
| 2026-04-24 07:19 | -27.50707 | 151.90629 | 1800 ft | 113 kts | 259° |
| 2026-04-24 07:20 | -27.51049 | 151.89921 | 1834 ft | 102 kts | 239° |
| 2026-04-24 07:20 | -27.51253 | 151.89147 | 1866 ft | 115 kts | 272° |
| 2026-04-24 07:20 | -27.51137 | 151.88283 | 1908 ft | 111 kts | 281° |
| 2026-04-24 07:20 | -27.51071 | 151.87361 | 1751 ft | 112 kts | 265° |
| 2026-04-24 07:21 | -27.51444 | 151.86692 | 1796 ft | 101 kts | 228° |
| 2026-04-24 07:21 | -27.51996 | 151.86254 | 1806 ft | 104 kts | 231° |
| 2026-04-24 07:21 | -27.52294 | 151.85591 | 1834 ft | 100 kts | 286° |
| 2026-04-24 07:21 | -27.51993 | 151.84827 | 1774 ft | 109 kts | 305° |
| 2026-04-24 07:22 | -27.51591 | 151.84071 | 1748 ft | 112 kts | 313° |
| 2026-04-24 07:22 | -27.51051 | 151.83496 | 1851 ft | 112 kts | 303° |
| 2026-04-24 07:22 | -27.50760 | 151.82665 | 1783 ft | 116 kts | 285° |
| 2026-04-24 07:22 | -27.50477 | 151.81790 | 1698 ft | 117 kts | 295° |
| 2026-04-24 07:23 | -27.50065 | 151.81005 | 1726 ft | 117 kts | 303° |
| 2026-04-24 07:23 | -27.49606 | 151.80207 | 1600 ft | 118 kts | 299° |
| 2026-04-24 07:23 | -27.49196 | 151.79397 | 1589 ft | 122 kts | 305° |
| 2026-04-24 07:23 | -27.48812 | 151.78589 | 1601 ft | 113 kts | 297° |
| 2026-04-24 07:24 | -27.48515 | 151.77728 | 1622 ft | 122 kts | 293° |
| 2026-04-24 07:24 | -27.48190 | 151.76840 | 2001 ft | 128 kts | 295° |
| 2026-04-24 07:24 | -27.47591 | 151.76147 | 2095 ft | 122 kts | 336° |
| 2026-04-24 07:24 | -27.46796 | 151.75740 | 1979 ft | 133 kts | 342° |
| 2026-04-24 07:25 | -27.45911 | 151.75295 | 2030 ft | 141 kts | 336° |
| 2026-04-24 07:25 | -27.45063 | 151.74702 | 2093 ft | 151 kts | 332° |
| 2026-04-24 07:25 | -27.44136 | 151.74041 | 2165 ft | 153 kts | 328° |
| 2026-04-24 07:25 | -27.43370 | 151.73413 | 2225 ft | 126 kts | 324° |
| 2026-04-24 07:26 | -27.42668 | 151.72827 | 2229 ft | 124 kts | 332° |
| 2026-04-24 07:26 | -27.41953 | 151.72307 | 2229 ft | 127 kts | 336° |
| 2026-04-24 07:26 | -27.41197 | 151.71761 | 2152 ft | 124 kts | 334° |
| 2026-04-24 07:26 | -27.40477 | 151.71375 | 2099 ft | 107 kts | 17° |
| 2026-04-24 07:27 | -27.39855 | 151.71763 | 1953 ft | 101 kts | 63° |
| 2026-04-24 07:27 | -27.39327 | 151.72269 | 2061 ft | 100 kts | 63° |
| 2026-04-24 07:27 | -27.39292 | 151.72859 | 1802 ft | 69 kts | 140° |
| 2026-04-24 07:27 | -27.39679 | 151.73236 | 1707 ft | 81 kts | 150° |
| 2026-04-24 07:28 | -27.40113 | 151.73585 | 1521 ft | 72 kts | 151° |
| 2026-04-24 07:28 | -27.40463 | 151.73859 | 1411 ft | 52 kts | 147° |
| 2026-04-24 07:28 | -27.40640 | 151.73991 | 1340 ft | 16 kts | 147° |
| 2026-04-24 07:28 | -27.40693 | 151.74028 | 1335 ft | 4 kts | 152° |
| 2026-04-24 07:29 | -27.40751 | 151.74044 | 1335 ft | 14 kts | 232° |
| 2026-04-24 07:29 | -27.40825 | 151.73925 | 1334 ft | 23 kts | 232° |
| 2026-04-24 07:29 | -27.40930 | 151.73754 | 1337 ft | 27 kts | 227° |
| 2026-04-24 07:29 | -27.41044 | 151.73578 | 1335 ft | 25 kts | 236° |
| 2026-04-24 07:30 | -27.41151 | 151.73472 | 1342 ft | 17 kts | 179° |
| 2026-04-24 07:30 | -27.41283 | 151.73451 | 1341 ft | 16 kts | 191° |
| 2026-04-24 07:30 | -27.41352 | 151.73449 | 1333 ft | 5 kts | 125° |
| 2026-04-24 07:30 | -27.41355 | 151.73507 | 1333 ft | 8 kts | 33° |
| 2026-04-24 07:31 | -27.41340 | 151.73513 | 1333 ft | 0 kts | 8° |